createdAt,value
2023-03-16T00:01:08.726Z,3.67
2023-03-16T00:03:36.774Z,3.66
2023-03-16T00:06:03.981Z,3.70
2023-03-16T00:08:30.886Z,3.71
2023-03-16T00:10:57.294Z,3.72
2023-03-16T00:13:25.000Z,3.73
2023-03-16T00:15:54.245Z,3.75
2023-03-16T00:18:22.447Z,3.75
2023-03-16T00:20:53.672Z,3.76
2023-03-16T00:23:20.125Z,3.76
2023-03-16T00:25:46.650Z,3.75
2023-03-16T00:28:13.955Z,3.75
2023-03-16T00:30:40.764Z,3.74
2023-03-16T00:33:07.267Z,3.73
2023-03-16T00:35:34.916Z,3.73
2023-03-16T00:38:01.478Z,3.72
2023-03-16T00:40:28.144Z,3.73
2023-03-16T00:42:55.088Z,3.73
2023-03-16T00:45:21.650Z,3.72
2023-03-16T00:47:48.173Z,3.73
2023-03-16T00:50:15.648Z,3.74
2023-03-16T00:52:42.341Z,3.71
2023-03-16T00:55:09.580Z,3.71
2023-03-16T00:57:36.083Z,3.73
2023-03-16T01:00:12.636Z,3.73
2023-03-16T01:02:39.149Z,3.74
2023-03-16T01:05:06.303Z,3.75
2023-03-16T01:07:32.702Z,3.76
2023-03-16T01:09:59.159Z,3.76
2023-03-16T01:12:25.611Z,3.77
2023-03-16T01:14:52.359Z,3.77
2023-03-16T01:17:19.050Z,3.76
2023-03-16T01:19:46.653Z,3.75
2023-03-16T01:22:13.695Z,3.76
2023-03-16T01:24:41.076Z,3.75
2023-03-16T01:27:08.941Z,3.76
2023-03-16T01:29:35.533Z,3.74
2023-03-16T01:32:04.212Z,3.73
2023-03-16T01:34:31.982Z,3.72
2023-03-16T01:36:58.915Z,3.73
2023-03-16T01:39:25.534Z,3.72
2023-03-16T01:41:52.031Z,3.72
2023-03-16T01:44:23.021Z,3.71
2023-03-16T01:46:49.992Z,3.71
2023-03-16T01:49:30.334Z,3.72
2023-03-16T01:52:05.500Z,3.72
2023-03-16T01:54:40.897Z,3.72
2023-03-16T01:57:17.722Z,3.72
2023-03-16T01:59:56.752Z,3.73
2023-03-16T02:02:27.337Z,3.73
2023-03-16T02:05:17.199Z,3.73
2023-03-16T02:07:47.862Z,3.72
2023-03-16T02:10:16.910Z,3.73
2023-03-16T02:12:44.114Z,3.75
2023-03-16T02:15:13.437Z,3.75
2023-03-16T02:17:43.004Z,3.77
2023-03-16T02:20:24.560Z,3.80
2023-03-16T02:22:55.411Z,3.79
2023-03-16T02:25:35.474Z,3.80
2023-03-16T02:28:23.705Z,3.81
2023-03-16T02:30:51.258Z,3.83
2023-03-16T02:33:19.490Z,3.84
2023-03-16T02:35:46.020Z,3.85
2023-03-16T02:38:12.567Z,3.84
2023-03-16T02:40:39.258Z,3.86
2023-03-16T02:43:20.641Z,3.86
2023-03-16T02:45:59.512Z,3.85
2023-03-16T02:48:33.617Z,3.84
2023-03-16T02:51:00.120Z,3.83
2023-03-16T02:53:26.547Z,3.82
2023-03-16T02:55:53.198Z,3.82
2023-03-16T02:58:19.776Z,3.83
2023-03-16T03:00:46.450Z,3.81
2023-03-16T03:03:14.128Z,3.80
2023-03-16T03:05:40.876Z,3.80
2023-03-16T03:08:07.589Z,3.80
2023-03-16T03:10:34.053Z,3.81
2023-03-16T03:13:00.784Z,3.80
2023-03-16T03:15:27.429Z,3.82
2023-03-16T03:17:53.983Z,3.83
2023-03-16T03:20:21.592Z,3.82
2023-03-16T03:22:50.135Z,3.82
2023-03-16T03:25:18.277Z,3.81
2023-03-16T03:27:46.553Z,3.82
2023-03-16T03:30:16.446Z,3.82
2023-03-16T03:32:44.149Z,3.81
2023-03-16T03:35:12.605Z,3.82
2023-03-16T03:37:44.239Z,3.80
2023-03-16T03:40:13.356Z,3.81
2023-03-16T03:42:41.002Z,3.80
2023-03-16T03:45:08.529Z,3.81
2023-03-16T03:47:34.995Z,3.81
2023-03-16T03:50:01.598Z,3.80
2023-03-16T03:52:29.038Z,3.77
2023-03-16T03:54:55.518Z,3.75
2023-03-16T03:57:22.077Z,3.74
2023-03-16T03:59:48.583Z,3.74
2023-03-16T04:02:15.622Z,3.72
2023-03-16T04:04:44.342Z,3.71
2023-03-16T04:07:11.277Z,3.69
2023-03-16T04:09:37.764Z,3.68
2023-03-16T04:12:05.969Z,3.66
2023-03-16T04:14:33.049Z,3.65
2023-03-16T04:16:59.691Z,3.61
2023-03-16T04:19:26.406Z,3.61
2023-03-16T04:21:53.328Z,3.59
2023-03-16T04:24:19.950Z,3.57
2023-03-16T04:26:46.539Z,3.57
2023-03-16T04:29:14.513Z,3.56
2023-03-16T04:31:42.419Z,3.53
2023-03-16T04:34:09.530Z,3.52
2023-03-16T04:36:36.257Z,3.52
2023-03-16T04:39:04.641Z,3.52
2023-03-16T04:41:31.912Z,3.52
2023-03-16T04:43:58.938Z,3.52
2023-03-16T04:46:26.829Z,3.55
2023-03-16T04:48:53.828Z,3.57
2023-03-16T04:51:21.563Z,3.57
2023-03-16T04:53:48.089Z,3.58
2023-03-16T04:56:19.803Z,3.58
2023-03-16T04:58:47.990Z,3.59
2023-03-16T05:01:15.363Z,3.60
2023-03-16T05:03:42.824Z,3.62
2023-03-16T05:06:10.171Z,3.65
2023-03-16T05:08:36.798Z,3.67
2023-03-16T05:11:03.342Z,3.67
2023-03-16T05:13:29.823Z,3.67
2023-03-16T05:15:56.383Z,3.67
2023-03-16T05:18:23.372Z,3.68
2023-03-16T05:20:51.764Z,3.69
2023-03-16T05:23:18.215Z,3.69
2023-03-16T05:25:47.246Z,3.69
2023-03-16T05:28:14.959Z,3.68
2023-03-16T05:30:42.434Z,3.68
2023-03-16T05:33:09.463Z,3.68
2023-03-16T05:35:36.470Z,3.69
2023-03-16T05:38:03.121Z,3.70
2023-03-16T05:40:29.997Z,3.70
2023-03-16T05:42:57.600Z,3.70
2023-03-16T05:45:24.485Z,3.72
2023-03-16T05:47:50.914Z,3.72
2023-03-16T05:50:17.605Z,3.72
2023-03-16T05:52:45.424Z,3.73
2023-03-16T05:55:14.574Z,3.72
2023-03-16T05:57:42.056Z,3.73
2023-03-16T06:00:15.647Z,3.72
2023-03-16T06:02:43.233Z,3.72
2023-03-16T06:05:11.223Z,3.74
2023-03-16T06:07:37.850Z,3.76
2023-03-16T06:10:05.313Z,3.76
2023-03-16T06:12:32.517Z,3.76
2023-03-16T06:14:59.039Z,3.77
2023-03-16T06:17:25.623Z,3.80
2023-03-16T06:19:52.120Z,3.80
2023-03-16T06:22:18.796Z,3.82
2023-03-16T06:24:45.294Z,3.85
2023-03-16T06:27:12.395Z,3.86
2023-03-16T06:29:38.858Z,3.87
2023-03-16T06:32:05.484Z,3.88
2023-03-16T06:34:38.337Z,3.89
2023-03-16T06:37:05.156Z,3.92
2023-03-16T06:39:31.767Z,3.97
2023-03-16T06:41:58.599Z,4.01
2023-03-16T06:44:25.194Z,4.04
2023-03-16T06:46:51.668Z,4.08
2023-03-16T06:49:18.181Z,4.10
2023-03-16T06:51:44.681Z,4.10
2023-03-16T06:54:11.773Z,4.12
2023-03-16T06:56:38.417Z,4.17
2023-03-16T06:59:04.857Z,4.22
2023-03-16T07:01:31.822Z,4.31
2023-03-16T07:03:58.478Z,4.40
2023-03-16T07:06:25.097Z,4.48
2023-03-16T07:08:51.593Z,4.55
2023-03-16T07:11:18.272Z,4.59
2023-03-16T07:13:44.849Z,4.58
2023-03-16T07:16:11.454Z,4.57
2023-03-16T07:18:39.810Z,4.57
2023-03-16T07:21:06.486Z,4.58
2023-03-16T07:23:32.993Z,4.59
2023-03-16T07:25:59.550Z,4.58
2023-03-16T07:28:27.940Z,4.58
2023-03-16T07:31:03.449Z,4.58
2023-03-16T07:33:34.754Z,4.60
2023-03-16T07:36:05.728Z,4.59
2023-03-16T07:38:33.596Z,4.57
2023-03-16T07:41:01.094Z,4.56
2023-03-16T07:43:27.722Z,4.56
2023-03-16T07:45:54.332Z,4.53
2023-03-16T07:48:20.926Z,4.52
2023-03-16T07:50:48.724Z,4.50
2023-03-16T07:53:17.965Z,4.50
2023-03-16T07:55:44.783Z,4.54
2023-03-16T07:58:12.319Z,4.55
2023-03-16T08:00:39.503Z,4.58
2023-03-16T08:03:06.985Z,4.63
2023-03-16T08:05:33.945Z,4.65
2023-03-16T08:08:04.009Z,4.70
2023-03-16T08:10:31.875Z,4.80
2023-03-16T08:13:04.673Z,4.88
2023-03-16T08:15:33.915Z,5.02
2023-03-16T08:18:04.381Z,5.18
2023-03-16T08:20:31.314Z,5.35
2023-03-16T08:22:57.915Z,5.50
2023-03-16T08:25:24.471Z,5.60
2023-03-16T08:27:51.135Z,5.67
2023-03-16T08:30:18.984Z,5.60
2023-03-16T08:32:45.538Z,5.59
2023-03-16T08:35:14.312Z,5.59
2023-03-16T08:37:42.044Z,5.60
2023-03-16T08:40:13.343Z,5.61
2023-03-16T08:42:40.381Z,5.60
2023-03-16T08:45:12.256Z,5.65
2023-03-16T08:47:40.489Z,5.66
2023-03-16T08:50:09.068Z,5.68
2023-03-16T08:52:36.739Z,5.71
2023-03-16T08:55:07.256Z,5.76
2023-03-16T08:57:34.119Z,5.81
2023-03-16T09:00:01.458Z,5.86
2023-03-16T09:02:28.076Z,5.90
2023-03-16T09:04:54.773Z,5.93
2023-03-16T09:07:21.954Z,5.96
2023-03-16T09:09:48.486Z,6.02
2023-03-16T09:12:15.225Z,6.06
2023-03-16T09:14:41.692Z,6.10
2023-03-16T09:17:08.102Z,6.09
2023-03-16T09:19:50.176Z,6.09
2023-03-16T09:22:19.679Z,6.02
2023-03-16T09:24:46.535Z,6.00
2023-03-16T09:27:13.082Z,5.99
2023-03-16T09:29:41.025Z,6.00
2023-03-16T09:32:08.615Z,6.02
2023-03-16T09:34:35.025Z,6.03
2023-03-16T09:37:01.545Z,6.05
2023-03-16T09:39:28.204Z,6.08
2023-03-16T09:42:14.854Z,6.11
2023-03-16T09:45:09.156Z,6.13
2023-03-16T09:47:38.584Z,6.21
2023-03-16T09:50:14.695Z,6.28
2023-03-16T09:52:57.618Z,6.39
2023-03-16T09:55:33.224Z,6.58
2023-03-16T09:58:01.300Z,6.68
2023-03-16T10:00:33.970Z,6.80
2023-03-16T10:03:22.212Z,6.88
2023-03-16T10:05:57.316Z,7.12
2023-03-16T10:08:28.565Z,7.34
2023-03-16T10:11:10.612Z,7.39
2023-03-16T10:13:46.608Z,7.59
2023-03-16T10:16:19.940Z,7.81
2023-03-16T10:18:49.378Z,7.90
2023-03-16T10:21:18.322Z,8.05
2023-03-16T10:23:47.047Z,8.18
2023-03-16T10:26:23.026Z,8.24
2023-03-16T10:28:49.602Z,8.44
2023-03-16T10:31:18.627Z,8.49
2023-03-16T10:33:45.641Z,8.50
2023-03-16T10:36:36.564Z,8.63
2023-03-16T10:39:07.363Z,8.72
2023-03-16T10:41:37.185Z,8.82
2023-03-16T10:44:10.169Z,8.83
2023-03-16T10:46:41.794Z,8.97
2023-03-16T10:49:39.460Z,8.92
2023-03-16T10:52:44.093Z,9.06
2023-03-16T10:55:24.723Z,9.11
2023-03-16T10:57:55.123Z,9.18
2023-03-16T11:00:26.595Z,9.19
2023-03-16T11:02:55.268Z,9.20
2023-03-16T11:05:32.344Z,9.17
2023-03-16T11:07:58.714Z,9.16
2023-03-16T11:10:25.546Z,9.30
2023-03-16T11:12:52.492Z,9.28
2023-03-16T11:15:29.393Z,9.37
2023-03-16T11:17:56.603Z,9.51
2023-03-16T11:20:33.526Z,9.45
2023-03-16T11:23:01.474Z,9.40
2023-03-16T11:25:43.216Z,9.41
2023-03-16T11:28:17.706Z,9.42
2023-03-16T11:30:59.156Z,9.41
2023-03-16T11:33:27.121Z,9.43
2023-03-16T11:36:28.068Z,9.49
2023-03-16T11:39:16.024Z,9.58
2023-03-16T11:41:51.792Z,9.59
2023-03-16T11:44:32.779Z,9.63
2023-03-16T11:47:07.986Z,9.76
2023-03-16T11:49:44.366Z,9.88
2023-03-16T11:52:28.985Z,9.97
2023-03-16T11:55:03.365Z,10.00
2023-03-16T11:58:01.189Z,10.12
2023-03-16T12:00:38.469Z,10.28
2023-03-16T12:03:25.762Z,10.27
2023-03-16T12:06:20.734Z,10.38
2023-03-16T12:09:33.869Z,10.53
2023-03-16T12:12:11.490Z,10.64
2023-03-16T12:14:44.155Z,10.84
2023-03-16T12:17:17.890Z,10.79
2023-03-16T12:20:04.147Z,11.03
2023-03-16T12:22:38.684Z,11.17
2023-03-16T12:25:16.209Z,11.24
2023-03-16T12:27:45.278Z,11.27
2023-03-16T12:30:36.244Z,11.29
2023-03-16T12:33:20.860Z,11.49
2023-03-16T12:36:30.674Z,11.60
2023-03-16T12:39:05.187Z,11.57
2023-03-16T12:41:49.019Z,11.82
2023-03-16T12:44:22.198Z,11.93
2023-03-16T12:47:09.591Z,11.98
2023-03-16T12:49:37.094Z,11.89
2023-03-16T12:52:11.459Z,11.87
2023-03-16T12:54:51.654Z,12.00
2023-03-16T12:57:19.615Z,12.17
2023-03-16T12:59:50.020Z,12.13
2023-03-16T13:02:26.825Z,12.21
2023-03-16T13:05:01.061Z,12.34
2023-03-16T13:07:31.123Z,12.34
2023-03-16T13:10:02.681Z,12.33
2023-03-16T13:12:37.140Z,12.37
2023-03-16T13:15:19.406Z,12.22
2023-03-16T13:17:48.110Z,12.16
2023-03-16T13:20:29.302Z,12.18
2023-03-16T13:23:18.558Z,12.26
2023-03-16T13:26:04.654Z,12.32
2023-03-16T13:28:35.292Z,12.47
2023-03-16T13:31:02.706Z,12.53
2023-03-16T13:33:37.315Z,12.47
2023-03-16T13:36:06.272Z,12.42
2023-03-16T13:38:32.783Z,12.44
2023-03-16T13:41:09.345Z,12.39
2023-03-16T13:43:39.547Z,12.37
2023-03-16T13:46:17.065Z,12.42
2023-03-16T13:48:44.011Z,12.54
2023-03-16T13:51:21.068Z,12.60
2023-03-16T13:53:49.367Z,12.67
2023-03-16T13:56:21.158Z,12.64
2023-03-16T13:58:51.609Z,12.86
2023-03-16T14:01:28.847Z,12.72
2023-03-16T14:03:58.359Z,12.88
2023-03-16T14:06:27.697Z,13.01
2023-03-16T14:09:01.186Z,12.92
2023-03-16T14:11:28.453Z,13.05
2023-03-16T14:13:57.491Z,13.07
2023-03-16T14:16:28.040Z,13.08
2023-03-16T14:19:16.955Z,13.05
2023-03-16T14:21:45.972Z,13.05
2023-03-16T14:24:30.759Z,12.98
2023-03-16T14:26:58.344Z,13.09
2023-03-16T14:29:30.589Z,13.06
2023-03-16T14:31:59.820Z,13.06
2023-03-16T14:34:35.148Z,13.11
2023-03-16T14:37:06.774Z,13.11
2023-03-16T14:39:33.820Z,13.06
2023-03-16T14:42:04.809Z,13.00
2023-03-16T14:44:35.400Z,13.06
2023-03-16T14:47:04.987Z,13.06
2023-03-16T14:49:35.002Z,13.06
2023-03-16T14:52:08.274Z,13.10
2023-03-16T14:54:34.837Z,13.17
2023-03-16T14:57:05.372Z,13.13
2023-03-16T14:59:32.988Z,13.06
2023-03-16T15:02:01.202Z,13.03
2023-03-16T15:04:33.554Z,13.04
2023-03-16T15:07:01.634Z,13.01
2023-03-16T15:09:39.973Z,12.84
2023-03-16T15:12:18.115Z,12.74
2023-03-16T15:15:03.580Z,12.67
2023-03-16T15:17:30.418Z,12.60
2023-03-16T15:19:57.015Z,12.64
2023-03-16T15:22:28.658Z,12.62
2023-03-16T15:24:57.551Z,12.60
2023-03-16T15:27:27.904Z,12.62
2023-03-16T15:29:54.601Z,12.71
2023-03-16T15:32:21.123Z,12.84
2023-03-16T15:34:47.840Z,13.01
2023-03-16T15:37:16.114Z,13.05
2023-03-16T15:39:43.625Z,13.12
2023-03-16T15:42:16.006Z,13.03
2023-03-16T15:44:42.960Z,13.01
2023-03-16T15:47:09.569Z,13.02
2023-03-16T15:49:46.724Z,13.02
2023-03-16T15:52:31.995Z,12.95
2023-03-16T15:55:03.396Z,12.98
2023-03-16T15:57:31.539Z,13.02
2023-03-16T15:59:59.278Z,13.08
2023-03-16T16:02:31.930Z,13.09
2023-03-16T16:04:59.593Z,13.15
2023-03-16T16:07:27.152Z,13.13
2023-03-16T16:09:54.013Z,13.01
2023-03-16T16:12:26.689Z,12.92
2023-03-16T16:14:54.051Z,12.85
2023-03-16T16:17:36.426Z,12.84
2023-03-16T16:20:23.827Z,12.84
2023-03-16T16:22:51.982Z,12.82
2023-03-16T16:25:20.527Z,12.76
2023-03-16T16:27:47.357Z,12.65
2023-03-16T16:30:26.198Z,12.54
2023-03-16T16:32:53.530Z,12.50
2023-03-16T16:35:22.611Z,12.46
2023-03-16T16:37:50.065Z,12.41
2023-03-16T16:40:25.727Z,12.36
2023-03-16T16:42:53.812Z,12.36
2023-03-16T16:45:23.294Z,12.32
2023-03-16T16:47:52.269Z,12.29
2023-03-16T16:50:21.502Z,12.22
2023-03-16T16:52:49.798Z,12.16
2023-03-16T16:55:16.502Z,12.05
2023-03-16T16:57:43.957Z,11.98
2023-03-16T17:00:18.494Z,11.92
2023-03-16T17:02:53.629Z,11.84
2023-03-16T17:05:25.732Z,11.77
2023-03-16T17:07:53.602Z,11.70
2023-03-16T17:10:23.671Z,11.57
2023-03-16T17:12:52.110Z,11.46
2023-03-16T17:15:32.914Z,11.32
2023-03-16T17:18:03.699Z,11.22
2023-03-16T17:20:31.126Z,11.13
2023-03-16T17:22:58.771Z,11.03
2023-03-16T17:25:26.338Z,10.92
2023-03-16T17:27:56.412Z,10.83
2023-03-16T17:30:32.212Z,10.74
2023-03-16T17:33:13.787Z,10.69
2023-03-16T17:35:41.545Z,10.60
2023-03-16T17:38:20.433Z,10.53
2023-03-16T17:40:47.370Z,10.46
2023-03-16T17:43:16.333Z,10.41
2023-03-16T17:45:44.614Z,10.29
2023-03-16T17:48:14.572Z,10.16
2023-03-16T17:50:41.511Z,10.06
2023-03-16T17:53:08.174Z,9.98
2023-03-16T17:55:35.056Z,9.87
2023-03-16T17:58:02.192Z,9.81
2023-03-16T18:00:35.777Z,9.68
2023-03-16T18:03:13.785Z,9.56
2023-03-16T18:05:41.190Z,9.50
2023-03-16T18:08:16.191Z,9.42
2023-03-16T18:10:45.467Z,9.36
2023-03-16T18:13:24.748Z,9.31
2023-03-16T18:15:51.930Z,9.29
2023-03-16T18:18:22.286Z,9.28
2023-03-16T18:20:54.978Z,9.25
2023-03-16T18:23:23.997Z,9.20
2023-03-16T18:25:52.656Z,9.21
2023-03-16T18:28:20.518Z,9.20
2023-03-16T18:30:51.983Z,9.17
2023-03-16T18:33:43.866Z,9.20
2023-03-16T18:36:17.752Z,9.16
2023-03-16T18:38:47.284Z,9.08
2023-03-16T18:41:19.853Z,9.02
2023-03-16T18:43:47.350Z,8.94
2023-03-16T18:46:32.491Z,8.88
2023-03-16T18:49:02.184Z,8.84
2023-03-16T18:51:29.687Z,8.79
2023-03-16T18:53:56.655Z,8.75
2023-03-16T18:56:28.442Z,8.70
2023-03-16T18:58:56.412Z,8.65
2023-03-16T19:01:29.630Z,8.62
2023-03-16T19:03:57.862Z,8.59
2023-03-16T19:06:33.713Z,8.55
2023-03-16T19:09:10.898Z,8.57
2023-03-16T19:11:42.654Z,8.56
2023-03-16T19:14:17.651Z,8.58
2023-03-16T19:16:45.273Z,8.57
2023-03-16T19:19:12.410Z,8.55
2023-03-16T19:21:39.740Z,8.53
2023-03-16T19:24:08.293Z,8.55
2023-03-16T19:26:37.540Z,8.51
2023-03-16T19:29:05.968Z,8.43
2023-03-16T19:31:33.505Z,8.36
2023-03-16T19:34:00.272Z,8.33
2023-03-16T19:36:33.882Z,8.29
2023-03-16T19:39:00.752Z,8.27
2023-03-16T19:41:37.079Z,8.24
2023-03-16T19:44:25.372Z,8.24
2023-03-16T19:46:52.318Z,8.23
2023-03-16T19:49:27.082Z,8.24
2023-03-16T19:51:55.267Z,8.18
2023-03-16T19:54:23.053Z,8.17
2023-03-16T19:56:50.507Z,8.15
2023-03-16T19:59:17.513Z,8.07
2023-03-16T20:01:44.744Z,8.04
2023-03-16T20:04:23.479Z,7.99
2023-03-16T20:06:50.925Z,8.01
2023-03-16T20:09:18.309Z,7.98
2023-03-16T20:11:45.936Z,8.00
2023-03-16T20:14:30.712Z,7.95
2023-03-16T20:16:57.774Z,7.94
2023-03-16T20:19:24.590Z,7.92
2023-03-16T20:21:51.925Z,7.89
2023-03-16T20:24:20.866Z,7.88
2023-03-16T20:26:51.318Z,7.87
2023-03-16T20:29:29.202Z,7.85
2023-03-16T20:31:56.082Z,7.86
2023-03-16T20:34:26.517Z,7.87
2023-03-16T20:36:53.408Z,7.90
2023-03-16T20:39:19.942Z,7.89
2023-03-16T20:41:46.549Z,7.92
2023-03-16T20:44:18.098Z,7.91
2023-03-16T20:46:45.170Z,7.89
2023-03-16T20:49:28.687Z,7.93
2023-03-16T20:51:55.453Z,7.91
2023-03-16T20:54:21.893Z,7.94
2023-03-16T20:56:49.131Z,7.93
2023-03-16T20:59:31.548Z,7.92
2023-03-16T21:01:58.448Z,7.93
2023-03-16T21:04:27.911Z,7.96
2023-03-16T21:06:55.858Z,7.93
2023-03-16T21:09:22.629Z,7.89
2023-03-16T21:11:49.574Z,7.86
2023-03-16T21:14:23.958Z,7.86
2023-03-16T21:16:51.457Z,7.90
2023-03-16T21:19:21.514Z,7.90
2023-03-16T21:21:48.868Z,7.94
2023-03-16T21:24:15.402Z,7.90
2023-03-16T21:26:42.830Z,7.81
2023-03-16T21:29:23.701Z,7.73
2023-03-16T21:31:50.309Z,7.70
2023-03-16T21:34:24.173Z,7.65
2023-03-16T21:36:50.866Z,7.59
2023-03-16T21:39:23.660Z,7.52
2023-03-16T21:41:50.747Z,7.45
2023-03-16T21:44:17.372Z,7.40
2023-03-16T21:46:44.580Z,7.35
2023-03-16T21:49:12.094Z,7.31
2023-03-16T21:51:42.831Z,7.31
2023-03-16T21:54:13.552Z,7.30
2023-03-16T21:56:41.887Z,7.28
2023-03-16T21:59:08.640Z,7.22
2023-03-16T22:01:44.858Z,7.21
2023-03-16T22:04:17.779Z,7.19
2023-03-16T22:06:45.890Z,7.16
2023-03-16T22:09:21.002Z,7.12
2023-03-16T22:11:47.485Z,7.07
2023-03-16T22:14:13.986Z,7.05
2023-03-16T22:16:41.256Z,6.99
2023-03-16T22:19:13.460Z,6.97
2023-03-16T22:21:42.628Z,6.98
2023-03-16T22:24:30.331Z,7.01
2023-03-16T22:26:57.941Z,7.03
2023-03-16T22:29:28.215Z,7.02
2023-03-16T22:32:03.029Z,7.00
2023-03-16T22:34:43.755Z,7.02
2023-03-16T22:37:13.193Z,7.04
2023-03-16T22:39:40.590Z,7.06
2023-03-16T22:42:19.187Z,7.09
2023-03-16T22:44:45.762Z,7.09
2023-03-16T22:47:24.117Z,7.08
2023-03-16T22:49:50.672Z,7.11
2023-03-16T22:52:17.860Z,7.13
2023-03-16T22:54:46.368Z,7.11
2023-03-16T22:57:15.508Z,7.09
2023-03-16T22:59:43.393Z,7.08
2023-03-16T23:02:19.067Z,7.09
2023-03-16T23:04:45.764Z,7.08
2023-03-16T23:07:16.766Z,7.07
2023-03-16T23:09:43.146Z,7.06
2023-03-16T23:12:15.444Z,7.09
2023-03-16T23:14:42.253Z,7.11
2023-03-16T23:17:26.976Z,7.14
2023-03-16T23:19:54.200Z,7.14
2023-03-16T23:22:20.610Z,7.20
2023-03-16T23:24:47.302Z,7.20
2023-03-16T23:27:21.339Z,7.22
2023-03-16T23:29:48.493Z,7.19
2023-03-16T23:32:17.108Z,7.18
2023-03-16T23:34:43.762Z,7.19
2023-03-16T23:37:10.293Z,7.19
2023-03-16T23:39:36.915Z,7.21
2023-03-16T23:42:04.126Z,7.21
2023-03-16T23:44:31.196Z,7.22
2023-03-16T23:46:59.805Z,7.23
2023-03-16T23:49:31.127Z,7.18
2023-03-16T23:52:02.751Z,7.17
2023-03-16T23:54:31.797Z,7.13
2023-03-16T23:56:58.732Z,7.12
2023-03-16T23:59:26.567Z,7.09
